createdAt,value
2019-05-11T00:03:48.550Z,11.91
2019-05-11T00:08:52.062Z,11.99
2019-05-11T00:13:54.141Z,12.02
2019-05-11T00:18:56.357Z,12.06
2019-05-11T00:23:58.647Z,11.76
2019-05-11T00:29:00.751Z,11.39
2019-05-11T00:34:03.021Z,11.10
2019-05-11T00:39:06.441Z,11.07
2019-05-11T00:44:08.739Z,11.10
2019-05-11T00:49:10.763Z,11.18
2019-05-11T00:54:14.728Z,11.22
2019-05-11T00:59:21.702Z,11.17
2019-05-11T01:04:20.816Z,11.00
2019-05-11T01:09:23.013Z,11.00
2019-05-11T01:14:25.308Z,10.79
2019-05-11T01:19:27.392Z,10.79
2019-05-11T01:24:29.534Z,10.77
2019-05-11T01:29:31.563Z,10.80
2019-05-11T01:34:33.739Z,10.82
2019-05-11T01:39:36.289Z,10.87
2019-05-11T01:44:38.332Z,10.93
2019-05-11T01:49:40.370Z,10.98
2019-05-11T01:54:42.358Z,11.00
2019-05-11T01:59:44.498Z,11.02
2019-05-11T02:04:50.751Z,11.10
2019-05-11T02:09:52.977Z,11.02
2019-05-11T02:14:55.001Z,10.79
2019-05-11T02:19:57.117Z,10.79
2019-05-11T02:24:59.237Z,10.85
2019-05-11T02:30:01.649Z,10.85
2019-05-11T02:35:04.081Z,10.92
2019-05-11T02:40:08.719Z,10.92
2019-05-11T02:45:11.548Z,10.92
2019-05-11T02:50:13.873Z,10.76
2019-05-11T02:55:16.107Z,10.73
2019-05-11T03:00:23.032Z,10.95
2019-05-11T03:05:25.075Z,11.08
2019-05-11T03:10:27.180Z,11.27
2019-05-11T03:15:29.391Z,11.30
2019-05-11T03:20:31.532Z,11.40
2019-05-11T03:25:33.716Z,11.40
2019-05-11T03:30:35.918Z,11.31
2019-05-11T03:35:37.938Z,11.31
2019-05-11T03:40:40.359Z,11.22
2019-05-11T03:45:42.467Z,11.17
2019-05-11T03:50:44.569Z,11.14
2019-05-11T03:55:46.669Z,11.02
2019-05-11T04:00:48.749Z,11.10
2019-05-11T04:05:50.991Z,11.21
2019-05-11T04:10:53.122Z,11.21
2019-05-11T04:15:55.091Z,11.11
2019-05-11T04:20:58.473Z,10.97
2019-05-11T04:26:00.547Z,11.01
2019-05-11T04:31:02.659Z,11.12
2019-05-11T04:36:04.698Z,11.11
2019-05-11T04:41:06.981Z,11.17
2019-05-11T04:46:10.751Z,11.21
2019-05-11T04:51:14.028Z,11.41
2019-05-11T04:56:16.273Z,11.40
2019-05-11T05:01:18.278Z,11.36
2019-05-11T05:06:23.975Z,11.43
2019-05-11T05:11:24.456Z,11.43
2019-05-11T05:16:26.446Z,11.43
2019-05-11T05:21:28.436Z,11.51
2019-05-11T05:26:30.581Z,11.47
2019-05-11T05:31:32.688Z,11.53
2019-05-11T05:36:34.717Z,11.43
2019-05-11T05:41:36.901Z,11.39
2019-05-11T05:46:39.116Z,11.41
2019-05-11T05:51:41.223Z,11.43
2019-05-11T05:56:43.395Z,11.47
2019-05-11T06:01:45.366Z,11.36
2019-05-11T06:06:47.395Z,11.36
2019-05-11T06:11:49.408Z,11.41
2019-05-11T06:16:51.970Z,11.45
2019-05-11T06:21:54.158Z,11.60
2019-05-11T06:26:56.211Z,11.89
2019-05-11T06:31:58.327Z,11.88
2019-05-11T06:37:00.527Z,11.88
2019-05-11T06:42:04.557Z,11.91
2019-05-11T06:47:06.760Z,11.95
2019-05-11T06:52:08.858Z,12.01
2019-05-11T06:57:10.895Z,11.97
2019-05-11T07:02:12.988Z,11.87
2019-05-11T07:07:15.252Z,11.84
2019-05-11T07:12:17.636Z,11.80
2019-05-11T07:17:19.695Z,11.81
2019-05-11T07:22:21.670Z,11.82
2019-05-11T07:27:23.761Z,11.85
2019-05-11T07:32:26.286Z,11.82
2019-05-11T07:37:29.320Z,11.81
2019-05-11T07:48:27.835Z,12.27
2019-05-11T07:53:30.014Z,12.12
2019-05-11T07:58:31.993Z,12.12
2019-05-11T08:03:34.078Z,12.41
2019-05-11T08:08:38.499Z,12.43
2019-05-11T08:13:40.171Z,12.46
2019-05-11T08:18:42.391Z,12.40
2019-05-11T08:23:44.413Z,12.41
2019-05-11T08:28:48.645Z,12.41
2019-05-11T08:33:50.453Z,12.34
2019-05-11T08:38:52.598Z,12.30
2019-05-11T08:43:58.015Z,12.35
2019-05-11T08:49:00.008Z,12.29
2019-05-11T08:54:02.132Z,12.29
2019-05-11T08:59:08.174Z,12.34
2019-05-11T09:04:10.543Z,12.35
2019-05-11T09:09:25.820Z,12.39
2019-05-11T09:14:28.532Z,12.43
2019-05-11T09:19:30.781Z,12.44
2019-05-11T09:24:32.896Z,12.53
2019-05-11T09:29:35.015Z,12.54
2019-05-11T09:34:37.823Z,12.55
2019-05-11T09:39:40.264Z,12.67
2019-05-11T09:44:44.440Z,12.71
2019-05-11T09:49:50.111Z,12.86
2019-05-11T09:54:50.558Z,12.83
2019-05-11T09:59:53.648Z,12.87
2019-05-11T10:04:57.833Z,12.96
2019-05-11T10:10:00.769Z,12.91
2019-05-11T10:15:03.386Z,12.88
2019-05-11T10:20:09.311Z,12.82
2019-05-11T10:25:11.287Z,12.84
2019-05-11T10:30:15.324Z,12.85
2019-05-11T10:35:18.351Z,12.88
2019-05-11T10:40:20.976Z,13.02
2019-05-11T10:45:23.091Z,13.01
2019-05-11T10:50:25.218Z,12.89
2019-05-11T10:55:28.023Z,12.86
2019-05-11T11:00:30.585Z,12.81
2019-05-11T11:05:32.858Z,12.78
2019-05-11T11:10:35.180Z,12.67
2019-05-11T11:15:38.071Z,12.60
2019-05-11T11:20:40.343Z,12.64
2019-05-11T11:25:42.543Z,12.60
2019-05-11T11:30:44.643Z,12.66
2019-05-11T11:35:47.728Z,12.79
2019-05-11T11:40:50.031Z,12.91
2019-05-11T11:45:52.027Z,12.87
2019-05-11T11:52:33.187Z,12.83
2019-05-11T11:57:37.806Z,12.60
2019-05-11T12:02:39.614Z,12.31
2019-05-11T12:07:41.747Z,12.20
2019-05-11T12:12:43.822Z,12.07
2019-05-11T12:17:48.078Z,12.05
2019-05-11T12:22:50.064Z,12.05
2019-05-11T12:27:53.507Z,11.96
2019-05-11T12:32:57.572Z,11.95
2019-05-11T12:38:08.612Z,11.95
2019-05-11T12:43:11.043Z,11.91
2019-05-11T12:48:14.349Z,11.87
2019-05-11T12:53:18.620Z,11.87
2019-05-11T12:58:20.909Z,11.86
2019-05-11T13:03:23.051Z,11.86
2019-05-11T13:08:25.049Z,11.92
2019-05-11T13:13:28.640Z,11.84
2019-05-11T13:18:35.785Z,11.72
2019-05-11T13:23:38.535Z,11.72
2019-05-11T13:28:40.550Z,11.83
2019-05-11T13:33:42.545Z,11.53
2019-05-11T13:38:44.534Z,11.53
2019-05-11T13:43:48.587Z,11.49
2019-05-11T13:48:50.918Z,11.43
2019-05-11T13:53:54.256Z,11.33
2019-05-11T13:59:06.531Z,11.27
2019-05-11T14:04:28.243Z,11.30
2019-05-11T14:09:30.338Z,11.32
2019-05-11T14:14:33.197Z,11.32
2019-05-11T14:19:38.275Z,11.35
2019-05-11T14:24:39.601Z,11.35
2019-05-11T14:29:41.606Z,11.26
2019-05-11T14:34:43.720Z,11.11
2019-05-11T14:39:48.185Z,11.07
2019-05-11T14:44:50.455Z,11.06
2019-05-11T14:49:52.424Z,11.03
2019-05-11T14:54:55.061Z,10.95
2019-05-11T14:59:58.611Z,10.80
2019-05-11T15:05:01.703Z,10.74
2019-05-11T15:10:11.395Z,10.69
2019-05-11T15:15:18.639Z,10.67
2019-05-11T15:20:20.910Z,10.64
2019-05-11T15:25:22.937Z,10.64
2019-05-11T15:30:25.243Z,10.64
2019-05-11T15:35:28.419Z,10.53
2019-05-11T15:40:30.921Z,10.45
2019-05-11T15:45:33.028Z,10.33
2019-05-11T15:50:35.022Z,10.23
2019-05-11T15:55:40.370Z,10.24
2019-05-11T16:00:41.139Z,10.18
2019-05-11T16:05:43.348Z,10.24
2019-05-11T16:10:48.930Z,10.33
2019-05-11T16:15:51.019Z,10.24
2019-05-11T16:20:53.078Z,10.16
2019-05-11T16:25:55.181Z,10.19
2019-05-11T16:30:58.376Z,10.18
2019-05-11T16:36:00.826Z,10.09
2019-05-11T16:41:03.320Z,10.05
2019-05-11T16:46:08.471Z,9.98
2019-05-11T16:51:10.405Z,9.95
2019-05-11T16:56:12.425Z,9.93
2019-05-11T17:01:14.449Z,9.96
2019-05-11T17:06:16.465Z,10.04
2019-05-11T17:11:19.744Z,10.03
2019-05-11T17:16:21.900Z,10.03
2019-05-11T17:21:23.895Z,10.02
2019-05-11T17:26:27.883Z,9.97
2019-05-11T17:31:30.036Z,9.91
2019-05-11T17:36:32.042Z,9.88
2019-05-11T17:41:34.246Z,9.75
2019-05-11T17:46:38.517Z,9.65
2019-05-11T17:51:40.656Z,9.51
2019-05-11T17:56:42.936Z,9.50
2019-05-11T18:01:46.934Z,9.37
2019-05-11T18:06:49.036Z,9.24
2019-05-11T18:11:51.147Z,9.14
2019-05-11T18:16:53.441Z,9.02
2019-05-11T18:21:57.729Z,8.90
2019-05-11T18:27:00.549Z,8.77
2019-05-11T18:32:02.776Z,8.66
2019-05-11T18:37:08.579Z,8.60
2019-05-11T18:42:10.059Z,8.54
2019-05-11T18:47:12.247Z,8.45
2019-05-11T18:52:14.432Z,8.42
2019-05-11T18:57:18.613Z,8.32
2019-05-11T19:02:20.584Z,8.27
2019-05-11T19:07:23.180Z,8.26
2019-05-11T19:12:27.662Z,8.24
2019-05-11T19:17:29.443Z,8.21
2019-05-11T19:22:31.483Z,8.20
2019-05-11T19:27:33.585Z,8.24
2019-05-11T19:32:38.067Z,8.25
2019-05-11T19:37:39.898Z,8.26
2019-05-11T19:42:54.805Z,8.30
2019-05-11T19:47:57.853Z,8.30
2019-05-11T19:53:00.402Z,8.35
2019-05-11T19:58:02.834Z,8.40
2019-05-11T20:03:04.875Z,8.48
2019-05-11T20:08:07.922Z,8.48
2019-05-11T20:13:10.158Z,8.48
2019-05-11T20:18:12.325Z,8.46
2019-05-11T20:23:14.345Z,8.40
2019-05-11T20:28:18.306Z,8.34
2019-05-11T20:33:20.483Z,8.32
2019-05-11T20:38:22.570Z,8.31
2019-05-11T20:43:24.693Z,8.33
2019-05-11T20:48:27.706Z,8.36
2019-05-11T20:53:29.980Z,8.37
2019-05-11T20:58:51.873Z,8.35
2019-05-11T21:03:54.033Z,8.40
2019-05-11T21:08:56.018Z,8.42
2019-05-11T21:13:58.154Z,8.42
2019-05-11T21:19:00.214Z,8.41
2019-05-11T21:24:02.305Z,8.42
2019-05-11T21:29:04.545Z,8.38
2019-05-11T21:34:08.180Z,8.41
2019-05-11T21:39:10.566Z,8.42
2019-05-11T21:44:12.799Z,8.41
2019-05-11T21:49:14.786Z,8.45
2019-05-11T21:54:16.899Z,8.49
2019-05-11T22:09:12.345Z,8.68
2019-05-11T22:24:49.505Z,8.67
2019-05-11T22:29:51.503Z,8.57
2019-05-11T22:34:53.571Z,8.53
2019-05-11T22:39:59.681Z,8.48
2019-05-11T22:45:01.893Z,8.45
2019-05-11T22:50:05.017Z,8.44
2019-05-11T22:55:08.887Z,8.42
2019-05-11T23:00:12.560Z,8.40
2019-05-11T23:05:16.783Z,8.36
2019-05-11T23:10:19.022Z,8.39
2019-05-11T23:15:21.034Z,8.39
2019-05-11T23:20:23.262Z,8.36
2019-05-11T23:25:25.364Z,8.35
2019-05-11T23:30:29.387Z,8.39
2019-05-11T23:35:31.675Z,8.39
2019-05-11T23:40:33.891Z,8.37
2019-05-11T23:45:38.206Z,8.37
2019-05-11T23:50:40.205Z,8.41
2019-05-11T23:55:42.462Z,8.44
